Ronnie Rogers — WDD2270 — position and weather

sailwx.info

Track history (hours):
 
Tides and Currents Weather Stations Pressure Air Temp Water Temp Dewpoint Dewpoint Depression Visibility Wind Speed Wind Dir Waves Ship Positions

Ronnie Rogers

Owner: Florida Marine Transporters, Inc., Mandeville, LA. More information available from US FCC via Universal Licensing System and Coast Guard Vessel Documentation Center.

Last reported at 2014-Dec-12 02:05 UTC. Time now 2014-Dec-19 10:08 UTC.
Position N 29°08' W 095°11'.

Length 29 m; draft 3 m.

Type: Towing. MMSI: 367113160.

Date/timePositionNaut miles runAvg speedWind from/ knotsBaromVisibWave heightAir tempDewpointWater temp
2014-Dec-12 02:05N 29°08' W 095°11'3 4.3
2014-Dec-12 01:28N 29°09' W 095°08'4 4.1
2014-Dec-12 00:27N 29°12' W 095°04'5 4.2
2014-Dec-11 23:14N 29°15' W 095°00'8 4.0
2014-Dec-11 21:08N 29°19' W 094°52'3 4.4
2014-Dec-11 20:21N 29°21' W 094°48'5 6.4
2014-Dec-11 19:33N 29°26' W 094°50'6 6.3
2014-Dec-11 18:33N 29°32' W 094°54'6 5.7
2014-Dec-11 17:33N 29°37' W 094°57'6 5.7
2014-Dec-11 16:33N 29°42' W 094°60'5 5.0
2014-Dec-11 15:33N 29°45' W 095°04'2 2.0
2014-Dec-11 14:33N 29°47' W 095°04'0 0.0
2014-Dec-11 13:33N 29°47' W 095°04'0 0.0
2014-Dec-11 12:33N 29°47' W 095°04'0 0.1
2014-Dec-11 11:33N 29°47' W 095°04'1 0.6
2014-Dec-11 10:33N 29°47' W 095°04'3 3.4
2014-Dec-11 09:33N 29°44' W 095°07'4 3.7
2014-Dec-11 08:33N 29°45' W 095°11'1 1.0
2014-Dec-11 07:33N 29°44' W 095°12'0 0.0
2014-Dec-11 06:33N 29°44' W 095°12'0 0.2
2014-Dec-11 05:33N 29°44' W 095°12'0 0.0
2014-Dec-11 04:33N 29°44' W 095°12'0 0.0
2014-Dec-11 03:33N 29°44' W 095°12'0 0.0
2014-Dec-11 02:33N 29°44' W 095°12'0 0.0
2014-Dec-11 01:33N 29°44' W 095°12'0 0.0
2014-Dec-11 00:34N 29°44' W 095°12'0 0.0
2014-Dec-10 23:33N 29°44' W 095°12'0 0.2
2014-Dec-10 22:33N 29°44' W 095°12'0 0.0
2014-Dec-10 21:33N 29°44' W 095°12'0 0.0
2014-Dec-10 20:33N 29°44' W 095°12'3 2.8
2014-Dec-10 19:33N 29°44' W 095°09'6 5.6
2014-Dec-10 18:33N 29°47' W 095°04'0 0.2
2014-Dec-10 17:34N 29°47' W 095°04'3 3.0
2014-Dec-10 16:33N 29°45' W 095°06'4 4.1
2014-Dec-10 15:33N 29°45' W 095°11'1 1.4
2014-Dec-10 14:33N 29°44' W 095°12'0 0.0
2014-Dec-10 13:33N 29°44' W 095°12'0 0.0
2014-Dec-10 12:33N 29°44' W 095°12'0 0.0
2014-Dec-10 11:33N 29°44' W 095°12'0 0.2
2014-Dec-10 10:33N 29°44' W 095°12'0 0.0
2014-Dec-10 09:33N 29°44' W 095°12'0 0.0
2014-Dec-10 08:33N 29°44' W 095°12'0 0.0
2014-Dec-10 07:33N 29°44' W 095°12'0 0.0
2014-Dec-10 06:33N 29°44' W 095°12'0 0.0
2014-Dec-10 05:33N 29°44' W 095°12'0 0.0
2014-Dec-10 04:33N 29°44' W 095°12'0 0.0
2014-Dec-10 03:33N 29°44' W 095°12'0 0.0
2014-Dec-10 02:33N 29°44' W 095°12'0 0.0
2014-Dec-10 01:33N 29°44' W 095°12'3 3.1
2014-Dec-10 00:33N 29°44' W 095°09'3 3.1
2014-Dec-09 23:33N 29°46' W 095°06'0 0.0
2014-Dec-09 22:33N 29°46' W 095°06'0 0.0
2014-Dec-09 21:33N 29°46' W 095°06'0 0.0
2014-Dec-09 20:33N 29°46' W 095°06'0 0.0
2014-Dec-09 19:33N 29°46' W 095°06'0 0.0
2014-Dec-09 18:33N 29°46' W 095°06'0 0.0
2014-Dec-09 17:33N 29°46' W 095°06'0 0.0
2014-Dec-09 16:33N 29°46' W 095°06'0 0.0
2014-Dec-09 15:33N 29°46' W 095°06'0 0.0
2014-Dec-09 14:33N 29°46' W 095°06'0 0.0
2014-Dec-09 13:33N 29°46' W 095°06'0 0.0
2014-Dec-09 12:33N 29°46' W 095°06'0 0.0
2014-Dec-09 11:33N 29°46' W 095°06'0 0.0
2014-Dec-09 10:33N 29°46' W 095°06'0 0.0
2014-Dec-09 09:33N 29°46' W 095°06'0 0.0
2014-Dec-09 08:33N 29°46' W 095°06'0 0.0
2014-Dec-09 05:33N 29°46' W 095°06'0 0.0
2014-Dec-09 04:33N 29°46' W 095°06'1 0.8
2014-Dec-09 03:33N 29°45' W 095°06'0 0.0
2014-Dec-09 02:33N 29°45' W 095°06'1 0.8
2014-Dec-09 01:33N 29°46' W 095°06'0 0.0
2014-Dec-09 00:32N 29°46' W 095°06'0 0.0
2014-Dec-08 23:33N 29°46' W 095°06'0 0.0
2014-Dec-08 22:33N 29°46' W 095°06'0 0.0
2014-Dec-08 21:33N 29°46' W 095°06'0 0.0
2014-Dec-08 20:33N 29°46' W 095°06'0 0.5
2014-Dec-08 19:34N 29°46' W 095°06'1 1.0
2014-Dec-08 18:34N 29°46' W 095°05'5 5.0
2014-Dec-08 17:33N 29°42' W 095°01'5 5.0
2014-Dec-08 16:33N 29°38' W 094°58'6 6.3
2014-Dec-08 15:33N 29°33' W 094°54'6 5.9
2014-Dec-08 14:33N 29°27' W 094°51'7 4.5
2014-Dec-08 13:05N 29°21' W 094°49'  
Track history (hours):
 
Tides and Currents Weather Stations Pressure Air Temp Water Temp Dewpoint Dewpoint Depression Visibility Wind Speed Wind Dir Waves Ship Positions

Ronnie Rogers

Owner: Florida Marine Transporters, Inc., Mandeville, LA. More information available from US FCC via Universal Licensing System and Coast Guard Vessel Documentation Center.

Last reported at 2014-Dec-12 02:05 UTC. Time now 2014-Dec-19 10:08 UTC.
Position N 29°08' W 095°11'.

Length 29 m; draft 3 m.

Type: Towing. MMSI: 367113160.

Date/timePositionNaut miles runAvg speedWind from/ knotsBaromVisibWave heightAir tempDewpointWater temp
2014-Dec-12 02:05N 29°08' W 095°11'3 4.3
2014-Dec-12 01:28N 29°09' W 095°08'4 4.1
2014-Dec-12 00:27N 29°12' W 095°04'5 4.2
2014-Dec-11 23:14N 29°15' W 095°00'8 4.0
2014-Dec-11 21:08N 29°19' W 094°52'3 4.4
2014-Dec-11 20:21N 29°21' W 094°48'5 6.4
2014-Dec-11 19:33N 29°26' W 094°50'6 6.3
2014-Dec-11 18:33N 29°32' W 094°54'6 5.7
2014-Dec-11 17:33N 29°37' W 094°57'6 5.7
2014-Dec-11 16:33N 29°42' W 094°60'5 5.0
2014-Dec-11 15:33N 29°45' W 095°04'2 2.0
2014-Dec-11 14:33N 29°47' W 095°04'0 0.0
2014-Dec-11 13:33N 29°47' W 095°04'0 0.0
2014-Dec-11 12:33N 29°47' W 095°04'0 0.1
2014-Dec-11 11:33N 29°47' W 095°04'1 0.6
2014-Dec-11 10:33N 29°47' W 095°04'3 3.4
2014-Dec-11 09:33N 29°44' W 095°07'4 3.7
2014-Dec-11 08:33N 29°45' W 095°11'1 1.0
2014-Dec-11 07:33N 29°44' W 095°12'0 0.0
2014-Dec-11 06:33N 29°44' W 095°12'0 0.2
2014-Dec-11 05:33N 29°44' W 095°12'0 0.0
2014-Dec-11 04:33N 29°44' W 095°12'0 0.0
2014-Dec-11 03:33N 29°44' W 095°12'0 0.0
2014-Dec-11 02:33N 29°44' W 095°12'0 0.0
2014-Dec-11 01:33N 29°44' W 095°12'0 0.0
2014-Dec-11 00:34N 29°44' W 095°12'0 0.0
2014-Dec-10 23:33N 29°44' W 095°12'0 0.2
2014-Dec-10 22:33N 29°44' W 095°12'0 0.0
2014-Dec-10 21:33N 29°44' W 095°12'0 0.0
2014-Dec-10 20:33N 29°44' W 095°12'3 2.8
2014-Dec-10 19:33N 29°44' W 095°09'6 5.6
2014-Dec-10 18:33N 29°47' W 095°04'0 0.2
2014-Dec-10 17:34N 29°47' W 095°04'3 3.0
2014-Dec-10 16:33N 29°45' W 095°06'4 4.1
2014-Dec-10 15:33N 29°45' W 095°11'1 1.4
2014-Dec-10 14:33N 29°44' W 095°12'0 0.0
2014-Dec-10 13:33N 29°44' W 095°12'0 0.0
2014-Dec-10 12:33N 29°44' W 095°12'0 0.0
2014-Dec-10 11:33N 29°44' W 095°12'0 0.2
2014-Dec-10 10:33N 29°44' W 095°12'0 0.0
2014-Dec-10 09:33N 29°44' W 095°12'0 0.0
2014-Dec-10 08:33N 29°44' W 095°12'0 0.0
2014-Dec-10 07:33N 29°44' W 095°12'0 0.0
2014-Dec-10 06:33N 29°44' W 095°12'0 0.0
2014-Dec-10 05:33N 29°44' W 095°12'0 0.0
2014-Dec-10 04:33N 29°44' W 095°12'0 0.0
2014-Dec-10 03:33N 29°44' W 095°12'0 0.0
2014-Dec-10 02:33N 29°44' W 095°12'0 0.0
2014-Dec-10 01:33N 29°44' W 095°12'3 3.1
2014-Dec-10 00:33N 29°44' W 095°09'3 3.1
2014-Dec-09 23:33N 29°46' W 095°06'0 0.0
2014-Dec-09 22:33N 29°46' W 095°06'0 0.0
2014-Dec-09 21:33N 29°46' W 095°06'0 0.0
2014-Dec-09 20:33N 29°46' W 095°06'0 0.0
2014-Dec-09 19:33N 29°46' W 095°06'0 0.0
2014-Dec-09 18:33N 29°46' W 095°06'0 0.0
2014-Dec-09 17:33N 29°46' W 095°06'0 0.0
2014-Dec-09 16:33N 29°46' W 095°06'0 0.0
2014-Dec-09 15:33N 29°46' W 095°06'0 0.0
2014-Dec-09 14:33N 29°46' W 095°06'0 0.0
2014-Dec-09 13:33N 29°46' W 095°06'0 0.0
2014-Dec-09 12:33N 29°46' W 095°06'0 0.0
2014-Dec-09 11:33N 29°46' W 095°06'0 0.0
2014-Dec-09 10:33N 29°46' W 095°06'0 0.0
2014-Dec-09 09:33N 29°46' W 095°06'0 0.0
2014-Dec-09 08:33N 29°46' W 095°06'0 0.0
2014-Dec-09 05:33N 29°46' W 095°06'0 0.0
2014-Dec-09 04:33N 29°46' W 095°06'1 0.8
2014-Dec-09 03:33N 29°45' W 095°06'0 0.0
2014-Dec-09 02:33N 29°45' W 095°06'1 0.8
2014-Dec-09 01:33N 29°46' W 095°06'0 0.0
2014-Dec-09 00:32N 29°46' W 095°06'0 0.0
2014-Dec-08 23:33N 29°46' W 095°06'0 0.0
2014-Dec-08 22:33N 29°46' W 095°06'0 0.0
2014-Dec-08 21:33N 29°46' W 095°06'0 0.0
2014-Dec-08 20:33N 29°46' W 095°06'0 0.5
2014-Dec-08 19:34N 29°46' W 095°06'1 1.0
2014-Dec-08 18:34N 29°46' W 095°05'5 5.0
2014-Dec-08 17:33N 29°42' W 095°01'5 5.0
2014-Dec-08 16:33N 29°38' W 094°58'6 6.3
2014-Dec-08 15:33N 29°33' W 094°54'6 5.9
2014-Dec-08 14:33N 29°27' W 094°51'7 4.5
2014-Dec-08 13:05N 29°21' W 094°49'  

Dump ship's entire track history